createdAt,value
2018-03-27T00:00:56.461Z,99217.59
2018-03-27T00:03:24.954Z,99211.28
2018-03-27T00:05:53.497Z,99208.50
2018-03-27T00:08:21.988Z,99210.47
2018-03-27T00:10:50.501Z,99205.09
2018-03-27T00:13:19.030Z,99210.94
2018-03-27T00:15:47.515Z,99207.80
2018-03-27T00:18:15.990Z,99208.27
2018-03-27T00:20:44.521Z,99209.95
2018-03-27T00:23:13.009Z,99214.59
2018-03-27T00:25:41.548Z,99207.42
2018-03-27T00:28:21.654Z,99205.33
2018-03-27T00:31:07.726Z,99204.47
2018-03-27T00:33:53.706Z,99202.42
2018-03-27T00:36:39.850Z,99186.48
2018-03-27T00:39:25.854Z,99206.33
2018-03-27T00:44:58.977Z,99180.26
2018-03-27T00:47:27.292Z,99193.14
2018-03-27T00:49:55.483Z,99192.55
2018-03-27T00:52:24.037Z,99186.41
2018-03-27T00:54:52.573Z,99196.10
2018-03-27T00:57:21.094Z,99196.38
2018-03-27T00:59:49.581Z,99202.25
2018-03-27T01:02:18.057Z,99204.48
2018-03-27T01:04:46.602Z,99201.72
2018-03-27T01:07:15.082Z,99208.68
2018-03-27T01:09:43.574Z,99220.38
2018-03-27T01:12:12.114Z,99231.55
2018-03-27T01:14:40.637Z,99229.67
2018-03-27T01:17:09.149Z,99231.42
2018-03-27T01:19:37.689Z,99228.86
2018-03-27T01:22:06.241Z,99229.19
2018-03-27T01:24:34.774Z,99234.99
2018-03-27T01:27:03.285Z,99230.80
2018-03-27T01:29:31.773Z,99224.70
2018-03-27T01:32:00.289Z,99222.53
2018-03-27T01:34:28.778Z,99218.71
2018-03-27T01:36:57.285Z,99218.77
2018-03-27T01:39:25.778Z,99216.95
2018-03-27T01:41:54.298Z,99222.73
2018-03-27T01:44:22.781Z,99227.42
2018-03-27T01:46:51.304Z,99228.12
2018-03-27T01:49:19.781Z,99225.39
2018-03-27T01:51:48.290Z,99239.58
2018-03-27T01:54:16.813Z,99245.58
2018-03-27T01:56:45.300Z,99251.20
2018-03-27T01:59:13.830Z,99247.63
2018-03-27T02:01:42.325Z,99241.48
2018-03-27T02:04:10.858Z,99251.66
2018-03-27T02:06:39.379Z,99251.88
2018-03-27T02:09:07.858Z,99247.43
2018-03-27T02:11:41.892Z,99253.22
2018-03-27T02:14:15.970Z,99251.45
2018-03-27T02:16:50.079Z,99257.97
2018-03-27T02:19:24.030Z,99246.20
2018-03-27T02:21:51.945Z,99244.54
2018-03-27T02:24:20.505Z,99233.98
2018-03-27T02:26:48.985Z,99238.58
2018-03-27T02:29:17.497Z,99237.06
2018-03-27T02:31:45.978Z,99231.45
2018-03-27T02:34:14.502Z,99237.11
2018-03-27T02:36:43.085Z,99234.96
2018-03-27T02:39:11.566Z,99241.55
2018-03-27T02:41:40.112Z,99248.69
2018-03-27T02:44:08.597Z,99251.31
2018-03-27T02:46:37.111Z,99253.52
2018-03-27T02:49:05.634Z,99258.91
2018-03-27T02:51:34.110Z,99262.16
2018-03-27T02:54:02.671Z,99260.16
2018-03-27T02:56:31.202Z,99270.18
2018-03-27T02:58:59.733Z,99270.03
2018-03-27T03:01:28.342Z,99264.25
2018-03-27T03:03:56.862Z,99260.82
2018-03-27T03:06:25.379Z,99264.64
2018-03-27T03:08:53.902Z,99276.55
2018-03-27T03:11:22.418Z,99282.05
2018-03-27T03:13:50.958Z,99279.81
2018-03-27T03:16:19.489Z,99281.69
2018-03-27T03:18:48.061Z,99281.53
2018-03-27T03:21:16.548Z,99285.02
2018-03-27T03:23:45.066Z,99277.36
2018-03-27T03:26:13.570Z,99281.16
2018-03-27T03:28:42.091Z,99265.64
2018-03-27T03:31:10.578Z,99284.08
2018-03-27T03:33:39.102Z,99283.56
2018-03-27T03:36:07.642Z,99282.63
2018-03-27T03:38:36.122Z,99280.88
2018-03-27T03:41:04.662Z,99280.70
2018-03-27T03:43:33.192Z,99277.04
2018-03-27T03:46:01.704Z,99261.89
2018-03-27T03:48:30.226Z,99275.82
2018-03-27T03:50:58.718Z,99284.64
2018-03-27T03:53:27.202Z,99282.36
2018-03-27T03:55:55.766Z,99285.13
2018-03-27T03:58:24.251Z,99288.35
2018-03-27T04:00:52.762Z,99294.59
2018-03-27T04:03:21.280Z,99278.06
2018-03-27T04:05:49.797Z,99304.50
2018-03-27T04:08:18.315Z,99309.63
2018-03-27T04:10:46.847Z,99318.34
2018-03-27T04:13:15.330Z,99323.69
2018-03-27T04:15:43.854Z,99325.38
2018-03-27T04:18:12.370Z,99333.36
2018-03-27T04:20:40.869Z,99312.16
2018-03-27T04:23:09.378Z,99335.52
2018-03-27T04:25:37.870Z,99336.27
2018-03-27T04:28:06.386Z,99324.28
2018-03-27T04:30:34.863Z,99334.73
2018-03-27T04:33:03.382Z,99337.55
2018-03-27T04:35:31.898Z,99342.78
2018-03-27T04:38:00.374Z,99315.13
2018-03-27T04:40:28.901Z,99339.82
2018-03-27T04:42:57.422Z,99339.08
2018-03-27T04:45:25.916Z,99333.95
2018-03-27T04:47:54.435Z,99337.78
2018-03-27T04:50:22.954Z,99344.19
2018-03-27T04:52:51.425Z,99346.61
2018-03-27T04:55:19.946Z,99339.34
2018-03-27T04:57:48.438Z,99338.58
2018-03-27T05:00:16.977Z,99352.61
2018-03-27T05:02:45.458Z,99343.61
2018-03-27T05:05:14.006Z,99344.41
2018-03-27T05:07:42.538Z,99332.27
2018-03-27T05:10:11.036Z,99342.08
2018-03-27T05:12:39.589Z,99341.59
2018-03-27T05:15:08.066Z,99325.95
2018-03-27T05:17:36.577Z,99343.91
2018-03-27T05:20:05.075Z,99339.67
2018-03-27T05:22:33.671Z,99315.45
2018-03-27T05:25:02.150Z,99344.02
2018-03-27T05:27:30.668Z,99350.41
2018-03-27T05:29:59.145Z,99353.05
2018-03-27T05:32:27.662Z,99339.96
2018-03-27T05:34:56.194Z,99345.83
2018-03-27T05:37:24.670Z,99339.05
2018-03-27T05:39:53.233Z,99351.41
2018-03-27T05:42:21.912Z,99358.52
2018-03-27T05:44:50.402Z,99365.22
2018-03-27T05:47:18.919Z,99361.78
2018-03-27T05:49:47.549Z,99358.30
2018-03-27T05:52:16.046Z,99359.01
2018-03-27T05:54:44.570Z,99360.55
2018-03-27T05:57:13.134Z,99341.86
2018-03-27T05:59:41.654Z,99345.33
2018-03-27T06:02:10.154Z,99358.63
2018-03-27T06:04:38.674Z,99363.05
2018-03-27T06:07:07.202Z,99343.36
2018-03-27T06:09:35.697Z,99359.58
2018-03-27T06:12:04.241Z,99358.06
2018-03-27T06:14:32.846Z,99368.70
2018-03-27T06:17:01.414Z,99366.01
2018-03-27T06:19:30.016Z,99365.63
2018-03-27T06:21:58.667Z,99360.99
2018-03-27T06:24:27.160Z,99363.47
2018-03-27T06:26:55.683Z,99371.45
2018-03-27T06:29:24.233Z,99369.44
2018-03-27T06:31:52.756Z,99376.24
2018-03-27T06:34:21.262Z,99376.05
2018-03-27T06:36:49.798Z,99365.46
2018-03-27T06:39:18.303Z,99372.16
2018-03-27T06:41:46.834Z,99381.55
2018-03-27T06:44:15.393Z,99390.72
2018-03-27T06:46:43.909Z,99383.95
2018-03-27T06:49:12.445Z,99395.53
2018-03-27T06:51:40.953Z,99361.17
2018-03-27T06:54:09.486Z,99409.25
2018-03-27T06:56:38.002Z,99409.58
2018-03-27T06:59:06.609Z,99394.00
2018-03-27T07:01:35.139Z,99399.59
2018-03-27T07:04:03.641Z,99406.31
2018-03-27T07:06:32.210Z,99402.25
2018-03-27T07:09:00.767Z,99410.01
2018-03-27T07:11:29.279Z,99396.43
2018-03-27T07:13:57.808Z,99400.18
2018-03-27T07:16:26.344Z,99390.30
2018-03-27T07:18:54.944Z,99378.13
2018-03-27T07:21:23.510Z,99395.59
2018-03-27T07:23:52.034Z,99402.66
2018-03-27T07:26:20.593Z,99407.98
2018-03-27T07:28:49.083Z,99396.66
2018-03-27T07:31:17.633Z,99420.83
2018-03-27T07:33:46.158Z,99402.83
2018-03-27T07:36:14.782Z,99407.69
2018-03-27T07:38:43.265Z,99421.29
2018-03-27T07:41:11.758Z,99413.98
2018-03-27T07:43:40.279Z,99414.66
2018-03-27T07:46:08.807Z,99417.20
2018-03-27T07:48:37.386Z,99420.76
2018-03-27T07:51:05.869Z,99421.59
2018-03-27T07:53:34.354Z,99431.25
2018-03-27T07:56:02.879Z,99430.45
2018-03-27T07:58:31.387Z,99427.38
2018-03-27T08:00:59.914Z,99421.98
2018-03-27T08:03:28.408Z,99427.08
2018-03-27T08:05:56.926Z,99336.80
2018-03-27T08:08:25.498Z,99438.22
2018-03-27T08:10:54.068Z,99440.24
2018-03-27T08:13:22.566Z,99434.28
2018-03-27T08:15:51.085Z,99428.96
2018-03-27T08:18:19.654Z,99440.50
2018-03-27T08:20:48.192Z,99438.58
2018-03-27T08:23:16.762Z,99427.45
2018-03-27T08:25:45.280Z,99429.42
2018-03-27T08:28:13.809Z,99427.39
2018-03-27T08:30:42.311Z,99427.31
2018-03-27T08:33:10.805Z,99426.43
2018-03-27T08:35:39.326Z,99422.37
2018-03-27T08:38:07.822Z,99424.80
2018-03-27T08:40:36.354Z,99402.97
2018-03-27T08:43:04.850Z,99416.98
2018-03-27T08:45:33.366Z,99415.03
2018-03-27T08:48:01.959Z,99426.46
2018-03-27T08:50:30.502Z,99430.53
2018-03-27T08:52:58.989Z,99420.97
2018-03-27T08:55:27.538Z,99419.34
2018-03-27T08:57:56.045Z,99426.22
2018-03-27T09:00:24.617Z,99432.70
2018-03-27T09:02:53.134Z,99418.80
2018-03-27T09:05:21.692Z,99426.99
2018-03-27T09:07:50.223Z,99427.50
2018-03-27T09:10:18.724Z,99424.92
2018-03-27T09:12:47.254Z,99415.73
2018-03-27T09:15:15.799Z,99420.02
2018-03-27T09:17:44.313Z,99399.53
2018-03-27T09:20:12.818Z,99419.89
2018-03-27T09:22:41.482Z,99407.72
2018-03-27T09:25:10.040Z,99418.52
2018-03-27T09:27:38.570Z,99401.85
2018-03-27T09:30:07.057Z,99400.64
2018-03-27T09:32:35.594Z,99409.39
2018-03-27T09:35:04.202Z,99412.38
2018-03-27T09:37:32.712Z,99404.59
2018-03-27T09:40:01.254Z,99406.00
2018-03-27T09:42:29.789Z,99412.08
2018-03-27T09:44:58.322Z,99396.04
2018-03-27T09:47:26.822Z,99406.02
2018-03-27T09:49:55.345Z,99404.66
2018-03-27T09:52:23.826Z,99389.48
2018-03-27T09:54:52.323Z,99388.11
2018-03-27T09:57:20.814Z,99395.31
2018-03-27T09:59:49.320Z,99399.67
2018-03-27T10:02:17.859Z,99389.95
2018-03-27T10:04:46.346Z,99391.81
2018-03-27T10:07:14.990Z,99392.05
2018-03-27T10:09:43.482Z,99378.20
2018-03-27T10:12:11.985Z,99389.88
2018-03-27T10:14:40.513Z,99378.27
2018-03-27T10:17:09.007Z,99386.52
2018-03-27T10:19:37.541Z,99382.75
2018-03-27T10:22:06.110Z,99364.05
2018-03-27T10:24:34.647Z,99372.84
2018-03-27T10:27:03.175Z,99373.91
2018-03-27T10:29:31.725Z,99376.45
2018-03-27T10:32:00.241Z,99377.56
2018-03-27T10:34:28.750Z,99373.59
2018-03-27T10:36:57.282Z,99369.30
2018-03-27T10:39:25.782Z,99374.31
2018-03-27T10:41:54.314Z,99376.08
2018-03-27T10:44:22.830Z,99376.71
2018-03-27T10:46:51.370Z,99369.35
2018-03-27T10:49:19.875Z,99386.31
2018-03-27T10:51:48.392Z,99390.19
2018-03-27T10:54:16.937Z,99386.06
2018-03-27T10:56:45.462Z,99378.25
2018-03-27T10:59:14.003Z,99380.25
2018-03-27T11:01:42.520Z,99373.50
2018-03-27T11:04:11.070Z,99376.64
2018-03-27T11:06:39.614Z,99380.09
2018-03-27T11:09:08.383Z,99385.80
2018-03-27T11:11:36.965Z,99383.54
2018-03-27T11:14:05.458Z,99376.00
2018-03-27T11:16:33.982Z,99380.20
2018-03-27T11:19:02.635Z,99386.91
2018-03-27T11:21:31.124Z,99384.28
2018-03-27T11:23:59.662Z,99380.44
2018-03-27T11:26:28.194Z,99380.50
2018-03-27T11:28:56.735Z,99368.48
2018-03-27T11:31:25.217Z,99379.98
2018-03-27T11:33:53.707Z,99391.89
2018-03-27T11:36:22.239Z,99392.48
2018-03-27T11:38:50.847Z,99394.83
2018-03-27T11:41:19.342Z,99391.23
2018-03-27T11:43:47.888Z,99396.86
2018-03-27T11:46:16.382Z,99381.22
2018-03-27T11:48:44.949Z,99364.50
2018-03-27T11:51:13.494Z,99391.91
2018-03-27T11:53:42.084Z,99349.62
2018-03-27T11:56:10.632Z,99399.06
2018-03-27T11:58:39.135Z,99387.58
2018-03-27T12:01:07.689Z,99396.77
2018-03-27T12:03:36.217Z,99388.11
2018-03-27T12:06:04.801Z,99372.77
2018-03-27T12:08:33.297Z,99398.30
2018-03-27T12:11:01.914Z,99393.00
2018-03-27T12:13:30.402Z,99386.55
2018-03-27T12:15:58.942Z,99383.06
2018-03-27T12:18:27.495Z,99386.92
2018-03-27T12:20:56.034Z,99394.20
2018-03-27T12:23:24.575Z,99376.73
2018-03-27T12:25:53.114Z,99383.02
2018-03-27T12:28:21.615Z,99389.31
2018-03-27T12:30:50.178Z,99389.56
2018-03-27T12:33:18.690Z,99391.96
2018-03-27T12:35:47.220Z,99390.92
2018-03-27T12:38:15.691Z,99386.86
2018-03-27T12:40:44.329Z,99370.29
2018-03-27T12:43:12.831Z,99387.88
2018-03-27T12:45:41.340Z,99382.95
2018-03-27T12:48:09.806Z,99346.17
2018-03-27T12:50:38.310Z,99376.02
2018-03-27T12:53:06.930Z,99373.72
2018-03-27T12:55:35.440Z,99385.95
2018-03-27T12:58:03.948Z,99381.05
2018-03-27T13:00:32.460Z,99379.33
2018-03-27T13:03:01.006Z,99378.27
2018-03-27T13:05:29.502Z,99377.67
2018-03-27T13:07:58.026Z,99383.52
2018-03-27T13:10:26.554Z,99383.28
2018-03-27T13:12:55.026Z,99365.23
2018-03-27T13:15:23.522Z,99370.03
2018-03-27T13:17:51.989Z,99374.20
2018-03-27T13:20:20.498Z,99369.09
2018-03-27T13:22:49.002Z,99353.20
2018-03-27T13:25:17.470Z,99374.67
2018-03-27T13:27:45.982Z,99359.63
2018-03-27T13:30:14.446Z,99359.47
2018-03-27T13:32:42.967Z,99363.77
2018-03-27T13:35:11.467Z,99362.45
2018-03-27T13:37:39.950Z,99362.91
2018-03-27T13:40:08.478Z,99350.92
2018-03-27T13:42:37.010Z,99365.80
2018-03-27T13:45:05.564Z,99355.65
2018-03-27T13:47:34.114Z,99359.56
2018-03-27T13:50:02.638Z,99342.58
2018-03-27T13:52:31.156Z,99365.00
2018-03-27T13:54:59.682Z,99357.80
2018-03-27T13:57:28.211Z,99313.41
2018-03-27T13:59:56.718Z,99352.64
2018-03-27T14:02:25.219Z,99341.84
2018-03-27T14:04:53.695Z,99346.81
2018-03-27T14:07:22.237Z,99349.44
2018-03-27T14:09:50.700Z,99350.30
2018-03-27T14:12:19.220Z,99342.17
2018-03-27T14:14:47.809Z,99347.37
2018-03-27T14:17:16.310Z,99313.98
2018-03-27T14:19:44.826Z,99339.73
2018-03-27T14:22:13.339Z,99339.61
2018-03-27T14:24:41.850Z,99336.34
2018-03-27T14:27:10.305Z,99328.34
2018-03-27T14:29:38.789Z,99331.76
2018-03-27T14:32:07.285Z,99335.77
2018-03-27T14:34:35.774Z,99337.13
2018-03-27T14:37:04.267Z,99331.20
2018-03-27T14:39:32.718Z,99330.61
2018-03-27T14:42:01.207Z,99337.78
2018-03-27T14:44:29.717Z,99337.67
2018-03-27T14:46:58.229Z,99338.59
2018-03-27T14:49:26.686Z,99338.69
2018-03-27T14:51:55.181Z,99339.44
2018-03-27T14:54:23.716Z,99349.53
2018-03-27T14:56:52.171Z,99339.44
2018-03-27T14:59:20.667Z,99344.48
2018-03-27T15:01:49.177Z,99346.20
2018-03-27T15:04:18.610Z,99366.11
2018-03-27T15:06:47.054Z,99366.77
2018-03-27T15:09:15.510Z,99368.34
2018-03-27T15:11:44.002Z,99366.14
2018-03-27T15:14:12.464Z,99354.74
2018-03-27T15:16:40.949Z,99364.44
2018-03-27T15:19:09.442Z,99366.05
2018-03-27T15:21:37.933Z,99366.84
2018-03-27T15:24:06.398Z,99371.62
2018-03-27T15:26:34.907Z,99377.58
2018-03-27T15:29:03.417Z,99359.56
2018-03-27T15:31:31.918Z,99370.23
2018-03-27T15:34:00.421Z,99371.72
2018-03-27T15:36:28.889Z,99362.84
2018-03-27T15:38:57.350Z,99368.30
2018-03-27T15:41:25.846Z,99361.58
2018-03-27T15:43:54.346Z,99371.16
2018-03-27T15:46:22.833Z,99378.47
2018-03-27T15:48:51.314Z,99379.02
2018-03-27T15:51:19.818Z,99364.23
2018-03-27T15:53:48.266Z,99374.20
2018-03-27T15:56:16.764Z,99374.20
2018-03-27T15:58:45.288Z,99378.05
2018-03-27T16:01:13.746Z,99372.62
2018-03-27T16:03:42.237Z,99369.63
2018-03-27T16:06:10.719Z,99368.78
2018-03-27T16:08:39.246Z,99370.53
2018-03-27T16:11:07.698Z,99368.05
2018-03-27T16:13:36.189Z,99368.53
2018-03-27T16:16:04.639Z,99370.38
2018-03-27T16:18:33.151Z,99375.09
2018-03-27T16:21:01.638Z,99379.09
2018-03-27T16:23:30.087Z,99375.41
2018-03-27T16:25:58.590Z,99380.08
2018-03-27T16:28:27.090Z,99377.62
2018-03-27T16:30:55.577Z,99353.34
2018-03-27T16:33:24.105Z,99377.66
2018-03-27T16:35:52.603Z,99374.42
2018-03-27T16:38:21.092Z,99363.38
2018-03-27T16:40:49.610Z,99338.99
2018-03-27T16:43:18.062Z,99379.44
2018-03-27T16:45:46.546Z,99381.19
2018-03-27T16:48:15.006Z,99380.64
2018-03-27T16:50:43.541Z,99387.97
2018-03-27T16:53:12.006Z,99379.80
2018-03-27T16:55:40.490Z,99388.00
2018-03-27T16:58:08.945Z,99388.98
2018-03-27T17:00:37.434Z,99392.84
2018-03-27T17:03:05.926Z,99391.67
2018-03-27T17:05:34.383Z,99389.75
2018-03-27T17:08:02.890Z,99401.38
2018-03-27T17:10:31.352Z,99408.23
2018-03-27T17:12:59.850Z,99403.33
2018-03-27T17:15:28.311Z,99414.58
2018-03-27T17:17:56.766Z,99397.28
2018-03-27T17:20:25.258Z,99417.64
2018-03-27T17:22:53.747Z,99424.70
2018-03-27T17:25:22.243Z,99427.71
2018-03-27T17:27:50.702Z,99426.92
2018-03-27T17:30:19.196Z,99439.14
2018-03-27T17:32:47.662Z,99439.20
2018-03-27T17:35:16.157Z,99444.71
2018-03-27T17:37:44.638Z,99446.59
2018-03-27T17:40:13.144Z,99450.80
2018-03-27T17:42:41.646Z,99457.91
2018-03-27T17:45:10.146Z,99457.41
2018-03-27T17:47:38.670Z,99460.76
2018-03-27T17:50:07.126Z,99466.43
2018-03-27T17:52:35.594Z,99467.22
2018-03-27T17:55:04.114Z,99462.09
2018-03-27T17:57:32.605Z,99486.27
2018-03-27T18:00:01.081Z,99484.91
2018-03-27T18:02:29.618Z,99490.34
2018-03-27T18:04:58.085Z,99488.61
2018-03-27T18:07:26.547Z,99489.81
2018-03-27T18:09:55.051Z,99488.02
2018-03-27T18:12:23.533Z,99479.91
2018-03-27T18:14:52.046Z,99487.78
2018-03-27T18:17:20.542Z,99485.71
2018-03-27T18:19:49.002Z,99498.50
2018-03-27T18:22:17.508Z,99507.83
2018-03-27T18:24:45.974Z,99512.23
2018-03-27T18:27:14.476Z,99524.62
2018-03-27T18:29:42.938Z,99521.33
2018-03-27T18:32:11.442Z,99529.07
2018-03-27T18:34:39.938Z,99534.26
2018-03-27T18:37:08.398Z,99537.89
2018-03-27T18:39:36.894Z,99531.31
2018-03-27T18:42:05.388Z,99552.91
2018-03-27T18:44:33.922Z,99560.78
2018-03-27T18:47:02.395Z,99561.08
2018-03-27T18:49:30.936Z,99550.08
2018-03-27T18:51:59.423Z,99571.11
2018-03-27T18:54:27.914Z,99559.27
2018-03-27T18:56:56.433Z,99576.34
2018-03-27T18:59:24.934Z,99575.49
2018-03-27T19:01:53.394Z,99575.86
2018-03-27T19:04:21.866Z,99586.49
2018-03-27T19:06:50.362Z,99598.13
2018-03-27T19:09:18.874Z,99594.30
2018-03-27T19:11:47.382Z,99592.30
2018-03-27T19:14:15.845Z,99598.83
2018-03-27T19:16:44.309Z,99592.16
2018-03-27T19:19:12.810Z,99591.10
2018-03-27T19:21:41.314Z,99597.89
2018-03-27T19:24:09.871Z,99593.41
2018-03-27T19:26:38.349Z,99598.75
2018-03-27T19:29:07.793Z,99594.38
2018-03-27T19:31:36.334Z,99592.72
2018-03-27T19:34:04.813Z,99598.81
2018-03-27T19:36:33.319Z,99607.98
2018-03-27T19:39:01.801Z,99604.43
2018-03-27T19:41:30.337Z,99606.62
2018-03-27T19:43:58.802Z,99617.91
2018-03-27T19:46:27.321Z,99616.20
2018-03-27T19:48:55.794Z,99593.48
2018-03-27T19:51:24.294Z,99616.25
2018-03-27T19:53:52.768Z,99616.34
2018-03-27T19:56:21.292Z,99619.05
2018-03-27T19:58:49.802Z,99607.24
2018-03-27T20:01:18.266Z,99611.93
2018-03-27T20:03:46.742Z,99620.11
2018-03-27T20:06:15.257Z,99625.76
2018-03-27T20:08:43.762Z,99627.42
2018-03-27T20:11:12.246Z,99620.16
2018-03-27T20:13:40.750Z,99622.41
2018-03-27T20:16:09.353Z,99618.75
2018-03-27T20:18:37.822Z,99628.95
2018-03-27T20:21:06.384Z,99621.49
2018-03-27T20:23:34.855Z,99631.73
2018-03-27T20:26:03.375Z,99634.95
2018-03-27T20:28:31.862Z,99643.67
2018-03-27T20:31:00.376Z,99641.09
2018-03-27T20:33:28.901Z,99638.44
2018-03-27T20:35:57.409Z,99638.51
2018-03-27T20:38:25.916Z,99644.15
2018-03-27T20:40:54.430Z,99644.80
2018-03-27T20:43:22.913Z,99636.85
2018-03-27T20:45:51.417Z,99633.78
2018-03-27T20:48:19.921Z,99628.90
2018-03-27T20:50:48.378Z,99625.09
2018-03-27T20:53:16.874Z,99615.96
2018-03-27T20:55:45.341Z,99614.17
2018-03-27T20:58:13.860Z,99615.48
2018-03-27T21:00:42.380Z,99613.00
2018-03-27T21:03:10.825Z,99605.11
2018-03-27T21:05:39.281Z,99597.39
2018-03-27T21:08:07.789Z,99600.54
2018-03-27T21:10:36.253Z,99597.52
2018-03-27T21:13:04.783Z,99607.83
2018-03-27T21:15:33.265Z,99609.30
2018-03-27T21:18:01.768Z,99586.95
2018-03-27T21:23:03.729Z,99614.72
2018-03-27T21:25:32.145Z,99607.77
2018-03-27T21:28:00.582Z,99613.94
2018-03-27T21:30:28.977Z,99615.08
2018-03-27T21:32:57.425Z,99633.71
2018-03-27T21:35:25.837Z,99632.00
2018-03-27T21:37:54.273Z,99635.66
2018-03-27T21:40:22.714Z,99635.43
2018-03-27T21:42:51.165Z,99633.48
2018-03-27T21:45:19.570Z,99635.12
2018-03-27T21:47:48.026Z,99635.49
2018-03-27T21:50:16.495Z,99637.80
2018-03-27T21:52:44.961Z,99638.56
2018-03-27T21:55:13.378Z,99631.08
2018-03-27T21:57:41.825Z,99623.23
2018-03-27T22:00:10.254Z,99618.59
2018-03-27T22:02:38.677Z,99625.07
2018-03-27T22:05:07.218Z,99621.29
2018-03-27T22:07:35.711Z,99620.66
2018-03-27T22:10:04.201Z,99614.95
2018-03-27T22:12:32.694Z,99583.95
2018-03-27T22:15:01.157Z,99616.64
2018-03-27T22:17:29.622Z,99608.98
2018-03-27T22:19:58.025Z,99594.86
2018-03-27T22:22:26.425Z,99609.76
2018-03-27T22:24:54.881Z,99615.23
2018-03-27T22:27:23.324Z,99603.73
2018-03-27T22:29:51.790Z,99617.81
2018-03-27T22:32:20.230Z,99615.77
2018-03-27T22:34:48.629Z,99623.59
2018-03-27T22:37:17.047Z,99631.91
2018-03-27T22:39:45.546Z,99628.03
2018-03-27T22:42:14.031Z,99632.63
2018-03-27T22:44:42.543Z,99634.77
2018-03-27T22:47:11.026Z,99633.75
2018-03-27T22:49:39.582Z,99629.88
2018-03-27T22:52:08.054Z,99627.69
2018-03-27T22:54:36.497Z,99623.48
2018-03-27T22:57:04.907Z,99619.84
2018-03-27T22:59:33.361Z,99620.77
2018-03-27T23:02:01.855Z,99617.75
2018-03-27T23:04:30.289Z,99617.18
2018-03-27T23:06:58.721Z,99620.92
2018-03-27T23:09:27.165Z,99624.05
2018-03-27T23:11:55.625Z,99621.91
2018-03-27T23:14:24.813Z,99628.52
2018-03-27T23:16:53.310Z,99630.19
2018-03-27T23:19:21.737Z,99632.83
2018-03-27T23:21:50.245Z,99617.05
2018-03-27T23:24:18.738Z,99625.41
2018-03-27T23:26:47.245Z,99613.97
2018-03-27T23:29:15.702Z,99620.82
2018-03-27T23:31:44.199Z,99616.86
2018-03-27T23:34:12.669Z,99619.50
2018-03-27T23:36:41.165Z,99604.66
2018-03-27T23:39:09.662Z,99605.47
2018-03-27T23:41:38.222Z,99604.66
2018-03-27T23:44:06.719Z,99601.58
2018-03-27T23:46:35.173Z,99606.30
2018-03-27T23:49:03.678Z,99599.41
2018-03-27T23:51:32.142Z,99592.87
2018-03-27T23:54:00.652Z,99583.75
2018-03-27T23:56:29.147Z,99585.08
2018-03-27T23:58:57.642Z,99577.22
